sensor_id;sensor_type;location;lat;lon;timestamp;P1;durP1;ratioP1;P2;durP2;ratioP2
39956;SDS011;48483;44.640;7.494;2023-04-25T00:00:54;2.20;;;0.55;;
39956;SDS011;48483;44.640;7.494;2023-04-25T00:03:22;0.88;;;0.45;;
39956;SDS011;48483;44.640;7.494;2023-04-25T00:05:50;1.42;;;0.80;;
39956;SDS011;48483;44.640;7.494;2023-04-25T00:08:17;4.05;;;0.73;;
39956;SDS011;48483;44.640;7.494;2023-04-25T00:10:44;0.45;;;0.30;;
39956;SDS011;48483;44.640;7.494;2023-04-25T00:13:10;2.35;;;0.60;;
39956;SDS011;48483;44.640;7.494;2023-04-25T00:15:37;0.55;;;0.40;;
39956;SDS011;48483;44.640;7.494;2023-04-25T00:18:04;1.20;;;0.50;;
39956;SDS011;48483;44.640;7.494;2023-04-25T00:20:33;3.28;;;2.15;;
39956;SDS011;48483;44.640;7.494;2023-04-25T00:23:01;3.70;;;0.70;;
39956;SDS011;48483;44.640;7.494;2023-04-25T00:25:28;0.70;;;0.50;;
39956;SDS011;48483;44.640;7.494;2023-04-25T00:27:54;1.45;;;0.68;;
39956;SDS011;48483;44.640;7.494;2023-04-25T00:30:21;0.63;;;0.50;;
39956;SDS011;48483;44.640;7.494;2023-04-25T00:32:47;1.13;;;0.47;;
39956;SDS011;48483;44.640;7.494;2023-04-25T00:35:14;1.95;;;0.55;;
39956;SDS011;48483;44.640;7.494;2023-04-25T00:37:42;0.75;;;0.60;;
39956;SDS011;48483;44.640;7.494;2023-04-25T00:40:09;1.08;;;0.50;;
39956;SDS011;48483;44.640;7.494;2023-04-25T00:42:36;1.45;;;0.55;;
39956;SDS011;48483;44.640;7.494;2023-04-25T00:45:04;1.40;;;0.85;;
39956;SDS011;48483;44.640;7.494;2023-04-25T00:47:33;1.98;;;0.90;;
39956;SDS011;48483;44.640;7.494;2023-04-25T00:50:01;2.25;;;0.98;;
39956;SDS011;48483;44.640;7.494;2023-04-25T00:52:27;3.40;;;1.20;;
39956;SDS011;48483;44.640;7.494;2023-04-25T00:54:55;1.27;;;0.75;;
39956;SDS011;48483;44.640;7.494;2023-04-25T00:57:22;3.15;;;1.23;;
39956;SDS011;48483;44.640;7.494;2023-04-25T00:59:48;3.25;;;1.13;;
39956;SDS011;48483;44.640;7.494;2023-04-25T01:02:17;3.30;;;0.82;;
39956;SDS011;48483;44.640;7.494;2023-04-25T01:04:45;2.97;;;1.13;;
39956;SDS011;48483;44.640;7.494;2023-04-25T01:07:11;3.58;;;1.20;;
39956;SDS011;48483;44.640;7.494;2023-04-25T01:09:38;2.65;;;0.90;;
39956;SDS011;48483;44.640;7.494;2023-04-25T01:12:06;1.88;;;1.05;;
39956;SDS011;48483;44.640;7.494;2023-04-25T01:14:34;1.40;;;1.00;;
39956;SDS011;48483;44.640;7.494;2023-04-25T01:17:01;2.63;;;0.95;;
39956;SDS011;48483;44.640;7.494;2023-04-25T01:19:28;2.42;;;0.80;;
39956;SDS011;48483;44.640;7.494;2023-04-25T01:21:56;1.85;;;0.98;;
39956;SDS011;48483;44.640;7.494;2023-04-25T01:24:23;1.75;;;0.90;;
39956;SDS011;48483;44.640;7.494;2023-04-25T01:26:50;1.30;;;0.90;;
39956;SDS011;48483;44.640;7.494;2023-04-25T01:29:21;2.45;;;1.00;;
39956;SDS011;48483;44.640;7.494;2023-04-25T01:31:48;1.92;;;0.77;;
39956;SDS011;48483;44.640;7.494;2023-04-25T01:34:16;1.25;;;0.60;;
39956;SDS011;48483;44.640;7.494;2023-04-25T01:36:43;2.25;;;0.60;;
39956;SDS011;48483;44.640;7.494;2023-04-25T01:39:11;1.30;;;1.10;;
39956;SDS011;48483;44.640;7.494;2023-04-25T01:41:38;1.67;;;0.80;;
39956;SDS011;48483;44.640;7.494;2023-04-25T01:44:04;3.05;;;0.82;;
39956;SDS011;48483;44.640;7.494;2023-04-25T01:46:31;1.50;;;0.70;;
39956;SDS011;48483;44.640;7.494;2023-04-25T01:48:58;0.77;;;0.50;;
39956;SDS011;48483;44.640;7.494;2023-04-25T01:51:25;3.05;;;0.70;;
39956;SDS011;48483;44.640;7.494;2023-04-25T01:53:52;3.58;;;0.60;;
39956;SDS011;48483;44.640;7.494;2023-04-25T01:56:21;2.53;;;0.88;;
39956;SDS011;48483;44.640;7.494;2023-04-25T01:58:48;1.92;;;0.80;;
39956;SDS011;48483;44.640;7.494;2023-04-25T02:01:31;1.30;;;0.70;;
39956;SDS011;48483;44.640;7.494;2023-04-25T02:04:12;1.48;;;0.85;;
39956;SDS011;48483;44.640;7.494;2023-04-25T02:06:40;3.42;;;0.80;;
39956;SDS011;48483;44.640;7.494;2023-04-25T02:09:07;1.27;;;0.63;;
39956;SDS011;48483;44.640;7.494;2023-04-25T02:11:40;1.73;;;0.98;;
39956;SDS011;48483;44.640;7.494;2023-04-25T02:14:24;1.48;;;0.90;;
39956;SDS011;48483;44.640;7.494;2023-04-25T02:17:14;1.75;;;0.85;;
39956;SDS011;48483;44.640;7.494;2023-04-25T02:19:41;4.18;;;1.13;;
39956;SDS011;48483;44.640;7.494;2023-04-25T02:22:08;0.88;;;0.70;;
39956;SDS011;48483;44.640;7.494;2023-04-25T02:24:35;3.45;;;1.67;;
39956;SDS011;48483;44.640;7.494;2023-04-25T02:27:03;2.17;;;1.20;;
39956;SDS011;48483;44.640;7.494;2023-04-25T02:29:29;2.03;;;1.00;;
39956;SDS011;48483;44.640;7.494;2023-04-25T02:31:56;4.25;;;0.82;;
39956;SDS011;48483;44.640;7.494;2023-04-25T02:34:22;1.65;;;0.80;;
39956;SDS011;48483;44.640;7.494;2023-04-25T02:36:49;1.67;;;0.85;;
39956;SDS011;48483;44.640;7.494;2023-04-25T02:39:18;1.88;;;0.80;;
39956;SDS011;48483;44.640;7.494;2023-04-25T02:41:45;4.10;;;1.25;;
39956;SDS011;48483;44.640;7.494;2023-04-25T02:44:13;2.88;;;0.93;;
39956;SDS011;48483;44.640;7.494;2023-04-25T02:46:39;4.90;;;0.68;;
39956;SDS011;48483;44.640;7.494;2023-04-25T02:49:06;2.35;;;0.80;;
39956;SDS011;48483;44.640;7.494;2023-04-25T02:51:34;2.45;;;0.80;;
39956;SDS011;48483;44.640;7.494;2023-04-25T02:54:00;1.60;;;0.68;;
39956;SDS011;48483;44.640;7.494;2023-04-25T02:56:27;3.08;;;1.02;;
39956;SDS011;48483;44.640;7.494;2023-04-25T02:58:54;2.30;;;0.63;;
39956;SDS011;48483;44.640;7.494;2023-04-25T03:01:22;2.83;;;1.15;;
39956;SDS011;48483;44.640;7.494;2023-04-25T03:03:48;1.67;;;0.60;;
39956;SDS011;48483;44.640;7.494;2023-04-25T03:06:15;1.25;;;0.65;;
39956;SDS011;48483;44.640;7.494;2023-04-25T03:08:42;1.75;;;0.98;;
39956;SDS011;48483;44.640;7.494;2023-04-25T03:11:09;1.45;;;0.90;;
39956;SDS011;48483;44.640;7.494;2023-04-25T03:13:36;0.82;;;0.60;;
39956;SDS011;48483;44.640;7.494;2023-04-25T03:16:03;2.17;;;0.60;;
39956;SDS011;48483;44.640;7.494;2023-04-25T03:18:31;2.03;;;0.75;;
39956;SDS011;48483;44.640;7.494;2023-04-25T03:20:58;1.90;;;0.75;;
39956;SDS011;48483;44.640;7.494;2023-04-25T03:23:25;1.27;;;0.65;;
39956;SDS011;48483;44.640;7.494;2023-04-25T03:25:52;1.75;;;0.88;;
39956;SDS011;48483;44.640;7.494;2023-04-25T03:28:18;1.70;;;0.73;;
39956;SDS011;48483;44.640;7.494;2023-04-25T03:30:45;1.50;;;0.80;;
39956;SDS011;48483;44.640;7.494;2023-04-25T03:33:12;1.67;;;0.60;;
39956;SDS011;48483;44.640;7.494;2023-04-25T03:35:40;2.00;;;0.70;;
39956;SDS011;48483;44.640;7.494;2023-04-25T03:38:08;2.55;;;1.30;;
39956;SDS011;48483;44.640;7.494;2023-04-25T03:43:20;1.02;;;0.57;;
39956;SDS011;48483;44.640;7.494;2023-04-25T03:45:53;1.80;;;0.70;;
39956;SDS011;48483;44.640;7.494;2023-04-25T03:48:21;0.63;;;0.63;;
39956;SDS011;48483;44.640;7.494;2023-04-25T03:50:52;2.78;;;0.77;;
39956;SDS011;48483;44.640;7.494;2023-04-25T03:53:19;1.17;;;0.70;;
39956;SDS011;48483;44.640;7.494;2023-04-25T03:56:04;2.13;;;0.98;;
39956;SDS011;48483;44.640;7.494;2023-04-25T03:58:35;1.42;;;0.80;;
39956;SDS011;48483;44.640;7.494;2023-04-25T04:01:01;2.50;;;0.90;;
39956;SDS011;48483;44.640;7.494;2023-04-25T04:03:34;3.42;;;1.05;;
39956;SDS011;48483;44.640;7.494;2023-04-25T04:06:05;2.05;;;0.90;;
39956;SDS011;48483;44.640;7.494;2023-04-25T04:08:36;2.83;;;0.80;;
39956;SDS011;48483;44.640;7.494;2023-04-25T04:11:02;1.08;;;0.70;;
39956;SDS011;48483;44.640;7.494;2023-04-25T04:13:29;2.15;;;0.90;;
39956;SDS011;48483;44.640;7.494;2023-04-25T04:15:56;2.70;;;0.80;;
39956;SDS011;48483;44.640;7.494;2023-04-25T04:18:23;2.47;;;0.80;;
39956;SDS011;48483;44.640;7.494;2023-04-25T04:20:50;2.67;;;1.02;;
39956;SDS011;48483;44.640;7.494;2023-04-25T04:23:18;4.38;;;1.20;;
39956;SDS011;48483;44.640;7.494;2023-04-25T04:25:45;4.90;;;1.35;;
39956;SDS011;48483;44.640;7.494;2023-04-25T04:28:28;12.63;;;2.08;;
39956;SDS011;48483;44.640;7.494;2023-04-25T04:31:12;10.85;;;1.85;;
39956;SDS011;48483;44.640;7.494;2023-04-25T04:33:38;7.25;;;1.40;;
39956;SDS011;48483;44.640;7.494;2023-04-25T04:36:06;8.70;;;2.22;;
39956;SDS011;48483;44.640;7.494;2023-04-25T04:38:35;8.88;;;2.47;;
39956;SDS011;48483;44.640;7.494;2023-04-25T04:41:03;6.25;;;1.90;;
39956;SDS011;48483;44.640;7.494;2023-04-25T04:43:39;3.58;;;1.13;;
39956;SDS011;48483;44.640;7.494;2023-04-25T04:46:24;1.77;;;0.88;;
39956;SDS011;48483;44.640;7.494;2023-04-25T04:49:09;2.20;;;0.98;;
39956;SDS011;48483;44.640;7.494;2023-04-25T04:52:05;3.38;;;1.38;;
39956;SDS011;48483;44.640;7.494;2023-04-25T04:54:45;8.38;;;1.63;;
39956;SDS011;48483;44.640;7.494;2023-04-25T04:57:32;4.13;;;1.50;;
39956;SDS011;48483;44.640;7.494;2023-04-25T05:00:31;4.85;;;1.60;;
39956;SDS011;48483;44.640;7.494;2023-04-25T05:03:16;5.53;;;2.17;;
39956;SDS011;48483;44.640;7.494;2023-04-25T05:05:58;4.22;;;1.35;;
39956;SDS011;48483;44.640;7.494;2023-04-25T05:08:49;7.25;;;1.27;;
39956;SDS011;48483;44.640;7.494;2023-04-25T05:11:21;5.43;;;1.45;;
39956;SDS011;48483;44.640;7.494;2023-04-25T05:13:55;5.13;;;1.45;;
39956;SDS011;48483;44.640;7.494;2023-04-25T05:16:45;5.38;;;1.35;;
39956;SDS011;48483;44.640;7.494;2023-04-25T05:19:35;4.90;;;1.23;;
39956;SDS011;48483;44.640;7.494;2023-04-25T05:22:17;3.67;;;1.15;;
39956;SDS011;48483;44.640;7.494;2023-04-25T05:24:59;1.85;;;0.80;;
39956;SDS011;48483;44.640;7.494;2023-04-25T05:27:40;2.58;;;0.98;;
39956;SDS011;48483;44.640;7.494;2023-04-25T05:30:29;3.35;;;1.02;;
39956;SDS011;48483;44.640;7.494;2023-04-25T05:33:22;5.43;;;0.90;;
39956;SDS011;48483;44.640;7.494;2023-04-25T05:35:48;1.10;;;0.63;;
39956;SDS011;48483;44.640;7.494;2023-04-25T05:38:16;1.58;;;0.63;;
39956;SDS011;48483;44.640;7.494;2023-04-25T05:41:08;1.05;;;0.52;;
39956;SDS011;48483;44.640;7.494;2023-04-25T05:43:50;1.15;;;0.60;;
39956;SDS011;48483;44.640;7.494;2023-04-25T05:46:39;2.47;;;0.82;;
39956;SDS011;48483;44.640;7.494;2023-04-25T05:49:18;1.58;;;0.90;;
39956;SDS011;48483;44.640;7.494;2023-04-25T05:52:03;3.92;;;0.95;;
39956;SDS011;48483;44.640;7.494;2023-04-25T05:54:47;2.60;;;1.10;;
39956;SDS011;48483;44.640;7.494;2023-04-25T05:57:20;1.33;;;0.80;;
39956;SDS011;48483;44.640;7.494;2023-04-25T05:59:49;2.03;;;1.17;;
39956;SDS011;48483;44.640;7.494;2023-04-25T06:02:16;2.42;;;1.38;;
39956;SDS011;48483;44.640;7.494;2023-04-25T06:04:43;1.98;;;1.25;;
39956;SDS011;48483;44.640;7.494;2023-04-25T06:07:10;2.25;;;1.30;;
39956;SDS011;48483;44.640;7.494;2023-04-25T06:09:36;3.67;;;1.60;;
39956;SDS011;48483;44.640;7.494;2023-04-25T06:12:04;3.20;;;1.65;;
39956;SDS011;48483;44.640;7.494;2023-04-25T06:14:31;5.47;;;1.58;;
39956;SDS011;48483;44.640;7.494;2023-04-25T06:16:59;3.75;;;1.25;;
39956;SDS011;48483;44.640;7.494;2023-04-25T06:19:32;4.03;;;1.60;;
39956;SDS011;48483;44.640;7.494;2023-04-25T06:21:58;2.42;;;1.48;;
39956;SDS011;48483;44.640;7.494;2023-04-25T06:24:25;3.15;;;1.73;;
39956;SDS011;48483;44.640;7.494;2023-04-25T06:26:52;3.85;;;1.27;;
39956;SDS011;48483;44.640;7.494;2023-04-25T06:29:18;2.78;;;1.17;;
39956;SDS011;48483;44.640;7.494;2023-04-25T06:31:46;3.58;;;1.40;;
39956;SDS011;48483;44.640;7.494;2023-04-25T06:34:14;2.55;;;1.33;;
39956;SDS011;48483;44.640;7.494;2023-04-25T06:36:41;2.88;;;1.17;;
39956;SDS011;48483;44.640;7.494;2023-04-25T06:39:10;3.95;;;2.47;;
39956;SDS011;48483;44.640;7.494;2023-04-25T06:41:37;3.10;;;1.67;;
39956;SDS011;48483;44.640;7.494;2023-04-25T06:44:06;5.07;;;1.88;;
39956;SDS011;48483;44.640;7.494;2023-04-25T06:46:39;3.05;;;1.63;;
39956;SDS011;48483;44.640;7.494;2023-04-25T06:49:05;5.40;;;1.67;;
39956;SDS011;48483;44.640;7.494;2023-04-25T06:51:34;3.85;;;1.90;;
39956;SDS011;48483;44.640;7.494;2023-04-25T06:54:00;3.50;;;1.80;;
39956;SDS011;48483;44.640;7.494;2023-04-25T06:56:38;6.85;;;2.00;;
39956;SDS011;48483;44.640;7.494;2023-04-25T06:59:10;3.40;;;1.70;;
39956;SDS011;48483;44.640;7.494;2023-04-25T07:01:39;2.67;;;1.67;;
39956;SDS011;48483;44.640;7.494;2023-04-25T07:04:11;3.47;;;1.73;;
39956;SDS011;48483;44.640;7.494;2023-04-25T07:06:45;3.17;;;2.00;;
39956;SDS011;48483;44.640;7.494;2023-04-25T07:09:15;3.28;;;2.15;;
39956;SDS011;48483;44.640;7.494;2023-04-25T07:11:45;5.60;;;2.97;;
39956;SDS011;48483;44.640;7.494;2023-04-25T07:14:12;8.50;;;3.08;;
39956;SDS011;48483;44.640;7.494;2023-04-25T07:16:39;6.13;;;2.63;;
39956;SDS011;48483;44.640;7.494;2023-04-25T07:19:06;5.53;;;2.58;;
39956;SDS011;48483;44.640;7.494;2023-04-25T07:21:33;5.88;;;3.25;;
39956;SDS011;48483;44.640;7.494;2023-04-25T07:24:04;5.68;;;3.38;;
39956;SDS011;48483;44.640;7.494;2023-04-25T07:26:35;7.82;;;3.40;;
39956;SDS011;48483;44.640;7.494;2023-04-25T07:31:54;4.57;;;3.03;;
39956;SDS011;48483;44.640;7.494;2023-04-25T07:34:21;5.43;;;3.20;;
39956;SDS011;48483;44.640;7.494;2023-04-25T07:36:48;4.90;;;3.55;;
39956;SDS011;48483;44.640;7.494;2023-04-25T07:39:16;6.63;;;3.78;;
39956;SDS011;48483;44.640;7.494;2023-04-25T07:41:43;4.68;;;3.47;;
39956;SDS011;48483;44.640;7.494;2023-04-25T07:44:15;4.90;;;3.50;;
39956;SDS011;48483;44.640;7.494;2023-04-25T07:46:42;6.75;;;4.18;;
39956;SDS011;48483;44.640;7.494;2023-04-25T07:49:09;5.40;;;3.92;;
39956;SDS011;48483;44.640;7.494;2023-04-25T07:51:36;6.45;;;3.95;;
39956;SDS011;48483;44.640;7.494;2023-04-25T07:54:08;5.53;;;4.00;;
39956;SDS011;48483;44.640;7.494;2023-04-25T07:56:39;7.50;;;4.05;;
39956;SDS011;48483;44.640;7.494;2023-04-25T07:59:06;6.35;;;3.90;;
39956;SDS011;48483;44.640;7.494;2023-04-25T08:01:33;7.57;;;4.18;;
39956;SDS011;48483;44.640;7.494;2023-04-25T08:04:03;6.05;;;4.43;;
39956;SDS011;48483;44.640;7.494;2023-04-25T08:06:43;8.35;;;4.13;;
39956;SDS011;48483;44.640;7.494;2023-04-25T08:09:19;6.57;;;4.90;;
39956;SDS011;48483;44.640;7.494;2023-04-25T08:11:47;8.68;;;4.90;;
39956;SDS011;48483;44.640;7.494;2023-04-25T08:14:16;6.13;;;4.10;;
39956;SDS011;48483;44.640;7.494;2023-04-25T08:16:44;11.00;;;4.80;;
39956;SDS011;48483;44.640;7.494;2023-04-25T08:19:10;7.93;;;4.55;;
39956;SDS011;48483;44.640;7.494;2023-04-25T08:21:38;11.50;;;5.43;;
39956;SDS011;48483;44.640;7.494;2023-04-25T08:24:08;7.85;;;4.35;;
39956;SDS011;48483;44.640;7.494;2023-04-25T08:26:38;6.50;;;4.85;;
39956;SDS011;48483;44.640;7.494;2023-04-25T08:29:07;6.70;;;3.95;;
39956;SDS011;48483;44.640;7.494;2023-04-25T08:31:37;8.40;;;4.10;;
39956;SDS011;48483;44.640;7.494;2023-04-25T08:34:04;6.13;;;4.25;;
39956;SDS011;48483;44.640;7.494;2023-04-25T08:36:35;6.10;;;4.10;;
39956;SDS011;48483;44.640;7.494;2023-04-25T08:39:02;5.28;;;3.42;;
39956;SDS011;48483;44.640;7.494;2023-04-25T08:41:30;5.72;;;3.70;;
39956;SDS011;48483;44.640;7.494;2023-04-25T08:43:57;5.07;;;3.90;;
39956;SDS011;48483;44.640;7.494;2023-04-25T08:46:27;6.32;;;3.42;;
39956;SDS011;48483;44.640;7.494;2023-04-25T08:49:29;5.60;;;3.75;;
39956;SDS011;48483;44.640;7.494;2023-04-25T08:51:56;6.13;;;3.95;;
39956;SDS011;48483;44.640;7.494;2023-04-25T08:54:27;6.32;;;3.90;;
39956;SDS011;48483;44.640;7.494;2023-04-25T08:56:54;5.40;;;4.03;;
39956;SDS011;48483;44.640;7.494;2023-04-25T08:59:24;6.63;;;4.10;;
39956;SDS011;48483;44.640;7.494;2023-04-25T09:01:52;6.18;;;3.78;;
39956;SDS011;48483;44.640;7.494;2023-04-25T09:04:21;6.73;;;4.33;;
39956;SDS011;48483;44.640;7.494;2023-04-25T09:06:47;8.45;;;4.53;;
39956;SDS011;48483;44.640;7.494;2023-04-25T09:09:14;5.13;;;3.47;;
39956;SDS011;48483;44.640;7.494;2023-04-25T09:11:41;5.97;;;4.32;;
39956;SDS011;48483;44.640;7.494;2023-04-25T09:14:11;6.97;;;4.18;;
39956;SDS011;48483;44.640;7.494;2023-04-25T09:17:04;7.57;;;3.70;;
39956;SDS011;48483;44.640;7.494;2023-04-25T09:19:45;5.68;;;3.72;;
39956;SDS011;48483;44.640;7.494;2023-04-25T09:24:52;4.90;;;3.63;;
39956;SDS011;48483;44.640;7.494;2023-04-25T09:27:21;5.40;;;3.95;;
39956;SDS011;48483;44.640;7.494;2023-04-25T09:30:09;6.40;;;4.00;;
39956;SDS011;48483;44.640;7.494;2023-04-25T09:33:07;4.93;;;4.18;;
39956;SDS011;48483;44.640;7.494;2023-04-25T09:35:36;5.20;;;3.95;;
39956;SDS011;48483;44.640;7.494;2023-04-25T09:38:08;4.85;;;3.63;;
39956;SDS011;48483;44.640;7.494;2023-04-25T09:40:56;6.47;;;3.75;;
39956;SDS011;48483;44.640;7.494;2023-04-25T09:43:38;6.72;;;4.25;;
39956;SDS011;48483;44.640;7.494;2023-04-25T09:46:07;7.28;;;3.88;;
39956;SDS011;48483;44.640;7.494;2023-04-25T09:48:39;7.43;;;4.40;;
39956;SDS011;48483;44.640;7.494;2023-04-25T09:51:07;7.55;;;4.72;;
39956;SDS011;48483;44.640;7.494;2023-04-25T09:53:35;5.68;;;4.05;;
39956;SDS011;48483;44.640;7.494;2023-04-25T09:56:13;7.88;;;4.80;;
39956;SDS011;48483;44.640;7.494;2023-04-25T09:58:39;5.07;;;3.85;;
39956;SDS011;48483;44.640;7.494;2023-04-25T10:01:08;6.40;;;4.70;;
39956;SDS011;48483;44.640;7.494;2023-04-25T10:03:47;8.15;;;4.07;;
39956;SDS011;48483;44.640;7.494;2023-04-25T10:06:32;7.13;;;4.13;;
39956;SDS011;48483;44.640;7.494;2023-04-25T10:09:01;6.97;;;4.30;;
39956;SDS011;48483;44.640;7.494;2023-04-25T10:11:29;6.05;;;3.97;;
39956;SDS011;48483;44.640;7.494;2023-04-25T10:13:57;7.65;;;4.10;;
39956;SDS011;48483;44.640;7.494;2023-04-25T10:16:26;6.90;;;4.60;;
39956;SDS011;48483;44.640;7.494;2023-04-25T10:18:54;5.68;;;4.47;;
39956;SDS011;48483;44.640;7.494;2023-04-25T10:21:22;6.45;;;5.20;;
39956;SDS011;48483;44.640;7.494;2023-04-25T10:23:49;6.82;;;4.38;;
39956;SDS011;48483;44.640;7.494;2023-04-25T10:26:17;6.68;;;4.10;;
39956;SDS011;48483;44.640;7.494;2023-04-25T10:28:56;7.55;;;4.20;;
39956;SDS011;48483;44.640;7.494;2023-04-25T10:31:23;6.78;;;4.18;;
39956;SDS011;48483;44.640;7.494;2023-04-25T10:33:50;6.18;;;4.03;;
39956;SDS011;48483;44.640;7.494;2023-04-25T10:36:19;5.43;;;4.30;;
39956;SDS011;48483;44.640;7.494;2023-04-25T10:38:47;7.05;;;4.40;;
39956;SDS011;48483;44.640;7.494;2023-04-25T10:41:17;7.22;;;3.95;;
39956;SDS011;48483;44.640;7.494;2023-04-25T10:43:48;4.78;;;3.30;;
39956;SDS011;48483;44.640;7.494;2023-04-25T10:46:17;6.47;;;3.60;;
39956;SDS011;48483;44.640;7.494;2023-04-25T10:48:46;5.00;;;3.60;;
39956;SDS011;48483;44.640;7.494;2023-04-25T10:51:19;4.22;;;3.20;;
39956;SDS011;48483;44.640;7.494;2023-04-25T10:53:56;7.55;;;3.80;;
39956;SDS011;48483;44.640;7.494;2023-04-25T10:56:25;8.98;;;4.47;;
39956;SDS011;48483;44.640;7.494;2023-04-25T10:58:55;7.28;;;4.57;;
39956;SDS011;48483;44.640;7.494;2023-04-25T11:01:35;6.65;;;4.10;;
39956;SDS011;48483;44.640;7.494;2023-04-25T11:04:03;7.63;;;3.83;;
39956;SDS011;48483;44.640;7.494;2023-04-25T11:06:34;5.63;;;3.78;;
39956;SDS011;48483;44.640;7.494;2023-04-25T11:09:10;6.35;;;3.95;;
39956;SDS011;48483;44.640;7.494;2023-04-25T11:11:41;5.13;;;3.38;;
39956;SDS011;48483;44.640;7.494;2023-04-25T11:14:07;4.55;;;2.40;;
39956;SDS011;48483;44.640;7.494;2023-04-25T11:16:34;3.42;;;1.95;;
39956;SDS011;48483;44.640;7.494;2023-04-25T11:19:02;5.47;;;2.90;;
39956;SDS011;48483;44.640;7.494;2023-04-25T11:21:29;5.45;;;3.30;;
39956;SDS011;48483;44.640;7.494;2023-04-25T11:23:58;7.03;;;3.30;;
39956;SDS011;48483;44.640;7.494;2023-04-25T11:26:25;6.93;;;4.95;;
39956;SDS011;48483;44.640;7.494;2023-04-25T11:28:55;7.88;;;5.85;;
39956;SDS011;48483;44.640;7.494;2023-04-25T11:31:24;6.28;;;4.60;;
39956;SDS011;48483;44.640;7.494;2023-04-25T11:33:52;7.95;;;4.25;;
39956;SDS011;48483;44.640;7.494;2023-04-25T11:36:19;6.93;;;4.85;;
39956;SDS011;48483;44.640;7.494;2023-04-25T11:38:45;8.27;;;4.47;;
39956;SDS011;48483;44.640;7.494;2023-04-25T11:41:13;6.97;;;4.45;;
39956;SDS011;48483;44.640;7.494;2023-04-25T11:43:40;6.65;;;4.95;;
39956;SDS011;48483;44.640;7.494;2023-04-25T11:46:09;6.80;;;5.03;;
39956;SDS011;48483;44.640;7.494;2023-04-25T11:48:38;6.65;;;4.20;;
39956;SDS011;48483;44.640;7.494;2023-04-25T11:51:05;4.23;;;3.70;;
39956;SDS011;48483;44.640;7.494;2023-04-25T11:53:32;5.28;;;3.63;;
39956;SDS011;48483;44.640;7.494;2023-04-25T11:55:59;6.65;;;3.67;;
39956;SDS011;48483;44.640;7.494;2023-04-25T11:58:28;6.78;;;4.63;;
39956;SDS011;48483;44.640;7.494;2023-04-25T12:00:54;4.13;;;3.20;;
39956;SDS011;48483;44.640;7.494;2023-04-25T12:03:24;5.65;;;3.78;;
39956;SDS011;48483;44.640;7.494;2023-04-25T12:06:02;4.20;;;2.38;;
39956;SDS011;48483;44.640;7.494;2023-04-25T12:08:29;4.72;;;2.67;;
39956;SDS011;48483;44.640;7.494;2023-04-25T12:10:56;3.45;;;2.40;;
39956;SDS011;48483;44.640;7.494;2023-04-25T12:13:23;8.43;;;4.95;;
39956;SDS011;48483;44.640;7.494;2023-04-25T12:15:52;5.22;;;2.63;;
39956;SDS011;48483;44.640;7.494;2023-04-25T12:18:22;4.75;;;2.35;;
39956;SDS011;48483;44.640;7.494;2023-04-25T12:20:49;6.40;;;2.80;;
39956;SDS011;48483;44.640;7.494;2023-04-25T12:23:20;4.07;;;2.20;;
39956;SDS011;48483;44.640;7.494;2023-04-25T12:25:52;3.67;;;1.98;;
39956;SDS011;48483;44.640;7.494;2023-04-25T12:28:19;3.58;;;1.77;;
39956;SDS011;48483;44.640;7.494;2023-04-25T12:30:55;3.55;;;1.58;;
39956;SDS011;48483;44.640;7.494;2023-04-25T12:33:27;3.67;;;2.50;;
39956;SDS011;48483;44.640;7.494;2023-04-25T12:35:55;3.47;;;2.15;;
39956;SDS011;48483;44.640;7.494;2023-04-25T12:38:22;3.70;;;1.70;;
39956;SDS011;48483;44.640;7.494;2023-04-25T12:40:49;2.75;;;1.52;;
39956;SDS011;48483;44.640;7.494;2023-04-25T12:43:16;2.70;;;1.80;;
39956;SDS011;48483;44.640;7.494;2023-04-25T12:45:43;5.10;;;1.80;;
39956;SDS011;48483;44.640;7.494;2023-04-25T12:48:12;2.67;;;1.83;;
39956;SDS011;48483;44.640;7.494;2023-04-25T12:50:38;4.47;;;2.40;;
39956;SDS011;48483;44.640;7.494;2023-04-25T12:53:05;3.17;;;2.20;;
39956;SDS011;48483;44.640;7.494;2023-04-25T12:55:31;4.30;;;2.33;;
39956;SDS011;48483;44.640;7.494;2023-04-25T12:57:58;5.78;;;2.60;;
39956;SDS011;48483;44.640;7.494;2023-04-25T13:00:24;4.22;;;2.17;;
39956;SDS011;48483;44.640;7.494;2023-04-25T13:02:52;3.67;;;1.98;;
39956;SDS011;48483;44.640;7.494;2023-04-25T13:05:20;4.72;;;2.90;;
39956;SDS011;48483;44.640;7.494;2023-04-25T13:07:47;5.20;;;2.80;;
39956;SDS011;48483;44.640;7.494;2023-04-25T13:10:13;5.07;;;2.38;;
39956;SDS011;48483;44.640;7.494;2023-04-25T13:12:40;4.40;;;2.85;;
39956;SDS011;48483;44.640;7.494;2023-04-25T13:15:07;3.80;;;2.72;;
39956;SDS011;48483;44.640;7.494;2023-04-25T13:17:35;7.18;;;3.20;;
39956;SDS011;48483;44.640;7.494;2023-04-25T13:20:01;3.92;;;3.10;;
39956;SDS011;48483;44.640;7.494;2023-04-25T13:22:32;5.00;;;2.77;;
39956;SDS011;48483;44.640;7.494;2023-04-25T13:25:00;4.88;;;2.63;;
39956;SDS011;48483;44.640;7.494;2023-04-25T13:27:26;5.30;;;3.78;;
39956;SDS011;48483;44.640;7.494;2023-04-25T13:29:53;3.85;;;2.50;;
39956;SDS011;48483;44.640;7.494;2023-04-25T13:32:19;4.53;;;2.90;;
39956;SDS011;48483;44.640;7.494;2023-04-25T13:34:46;3.42;;;2.30;;
39956;SDS011;48483;44.640;7.494;2023-04-25T13:37:13;6.60;;;2.28;;
39956;SDS011;48483;44.640;7.494;2023-04-25T13:39:41;5.05;;;2.55;;
39956;SDS011;48483;44.640;7.494;2023-04-25T13:42:07;3.55;;;1.90;;
39956;SDS011;48483;44.640;7.494;2023-04-25T13:44:34;4.03;;;2.20;;
39956;SDS011;48483;44.640;7.494;2023-04-25T13:47:00;3.92;;;2.05;;
39956;SDS011;48483;44.640;7.494;2023-04-25T13:49:27;4.50;;;2.13;;
39956;SDS011;48483;44.640;7.494;2023-04-25T13:51:53;3.88;;;2.05;;
39956;SDS011;48483;44.640;7.494;2023-04-25T13:54:20;3.78;;;2.40;;
39956;SDS011;48483;44.640;7.494;2023-04-25T13:56:48;2.75;;;1.85;;
39956;SDS011;48483;44.640;7.494;2023-04-25T13:59:15;5.65;;;2.90;;
39956;SDS011;48483;44.640;7.494;2023-04-25T14:01:41;4.53;;;3.13;;
39956;SDS011;48483;44.640;7.494;2023-04-25T14:04:08;6.35;;;3.60;;
39956;SDS011;48483;44.640;7.494;2023-04-25T14:06:35;4.93;;;3.58;;
39956;SDS011;48483;44.640;7.494;2023-04-25T14:09:01;7.43;;;3.75;;
39956;SDS011;48483;44.640;7.494;2023-04-25T14:11:30;5.03;;;2.90;;
39956;SDS011;48483;44.640;7.494;2023-04-25T14:13:57;5.32;;;3.40;;
39956;SDS011;48483;44.640;7.494;2023-04-25T14:16:24;4.63;;;3.08;;
39956;SDS011;48483;44.640;7.494;2023-04-25T14:18:51;5.00;;;3.22;;
39956;SDS011;48483;44.640;7.494;2023-04-25T14:21:18;6.82;;;3.20;;
39956;SDS011;48483;44.640;7.494;2023-04-25T14:23:46;4.20;;;2.70;;
39956;SDS011;48483;44.640;7.494;2023-04-25T14:26:12;9.95;;;2.92;;
39956;SDS011;48483;44.640;7.494;2023-04-25T14:28:39;4.38;;;2.63;;
39956;SDS011;48483;44.640;7.494;2023-04-25T14:31:07;4.35;;;2.47;;
39956;SDS011;48483;44.640;7.494;2023-04-25T14:33:34;6.10;;;2.47;;
39956;SDS011;48483;44.640;7.494;2023-04-25T14:36:01;5.95;;;1.92;;
39956;SDS011;48483;44.640;7.494;2023-04-25T14:38:28;2.65;;;1.52;;
39956;SDS011;48483;44.640;7.494;2023-04-25T14:40:54;3.05;;;1.52;;
39956;SDS011;48483;44.640;7.494;2023-04-25T14:43:21;4.38;;;2.05;;
39956;SDS011;48483;44.640;7.494;2023-04-25T14:45:48;2.17;;;1.48;;
39956;SDS011;48483;44.640;7.494;2023-04-25T14:48:16;3.55;;;1.40;;
39956;SDS011;48483;44.640;7.494;2023-04-25T14:50:45;2.13;;;1.33;;
39956;SDS011;48483;44.640;7.494;2023-04-25T14:53:12;4.40;;;1.52;;
39956;SDS011;48483;44.640;7.494;2023-04-25T14:55:38;3.08;;;1.80;;
39956;SDS011;48483;44.640;7.494;2023-04-25T14:58:06;2.88;;;2.38;;
39956;SDS011;48483;44.640;7.494;2023-04-25T15:00:32;2.83;;;1.73;;
39956;SDS011;48483;44.640;7.494;2023-04-25T15:02:59;3.42;;;1.50;;
39956;SDS011;48483;44.640;7.494;2023-04-25T15:05:27;9.35;;;2.65;;
39956;SDS011;48483;44.640;7.494;2023-04-25T15:07:53;2.95;;;1.52;;
39956;SDS011;48483;44.640;7.494;2023-04-25T15:10:20;3.80;;;2.00;;
39956;SDS011;48483;44.640;7.494;2023-04-25T15:12:47;2.78;;;1.52;;